sensor_id;sensor_type;location;lat;lon;timestamp;P1;durP1;ratioP1;P2;durP2;ratioP2
72864;SDS011;61000;48.120;11.548;2022-10-04T00:00:49;10.30;;;6.32;;
72864;SDS011;61000;48.120;11.548;2022-10-04T00:03:23;11.57;;;7.15;;
72864;SDS011;61000;48.120;11.548;2022-10-04T00:05:53;7.45;;;6.28;;
72864;SDS011;61000;48.120;11.548;2022-10-04T00:08:23;9.45;;;6.10;;
72864;SDS011;61000;48.120;11.548;2022-10-04T00:11:05;7.47;;;6.40;;
72864;SDS011;61000;48.120;11.548;2022-10-04T00:13:39;11.38;;;7.28;;
72864;SDS011;61000;48.120;11.548;2022-10-04T00:16:12;11.15;;;6.82;;
72864;SDS011;61000;48.120;11.548;2022-10-04T00:18:46;13.68;;;8.63;;
72864;SDS011;61000;48.120;11.548;2022-10-04T00:21:13;11.55;;;8.15;;
72864;SDS011;61000;48.120;11.548;2022-10-04T00:23:44;11.30;;;7.80;;
72864;SDS011;61000;48.120;11.548;2022-10-04T00:29:29;6.30;;;5.60;;
72864;SDS011;61000;48.120;11.548;2022-10-04T00:34:54;6.18;;;5.13;;
72864;SDS011;61000;48.120;11.548;2022-10-04T00:37:22;8.50;;;5.40;;
72864;SDS011;61000;48.120;11.548;2022-10-04T00:39:58;6.25;;;5.35;;
72864;SDS011;61000;48.120;11.548;2022-10-04T00:42:37;9.65;;;5.95;;
72864;SDS011;61000;48.120;11.548;2022-10-04T00:45:30;8.23;;;5.47;;
72864;SDS011;61000;48.120;11.548;2022-10-04T00:48:02;6.60;;;4.85;;
72864;SDS011;61000;48.120;11.548;2022-10-04T00:50:55;7.75;;;5.32;;
72864;SDS011;61000;48.120;11.548;2022-10-04T00:56:19;7.70;;;5.63;;
72864;SDS011;61000;48.120;11.548;2022-10-04T00:59:03;7.20;;;5.20;;
72864;SDS011;61000;48.120;11.548;2022-10-04T01:01:43;9.02;;;5.15;;
72864;SDS011;61000;48.120;11.548;2022-10-04T01:04:20;6.57;;;5.70;;
72864;SDS011;61000;48.120;11.548;2022-10-04T01:06:53;7.00;;;5.53;;
72864;SDS011;61000;48.120;11.548;2022-10-04T01:09:22;7.63;;;6.13;;
72864;SDS011;61000;48.120;11.548;2022-10-04T01:11:54;13.23;;;6.80;;
72864;SDS011;61000;48.120;11.548;2022-10-04T01:14:28;6.45;;;5.53;;
72864;SDS011;61000;48.120;11.548;2022-10-04T01:17:02;7.28;;;5.53;;
72864;SDS011;61000;48.120;11.548;2022-10-04T01:19:30;7.30;;;5.18;;
72864;SDS011;61000;48.120;11.548;2022-10-04T01:22:01;7.43;;;5.32;;
72864;SDS011;61000;48.120;11.548;2022-10-04T01:24:37;6.68;;;5.18;;
72864;SDS011;61000;48.120;11.548;2022-10-04T01:27:05;7.55;;;5.47;;
72864;SDS011;61000;48.120;11.548;2022-10-04T01:30:01;6.68;;;5.50;;
72864;SDS011;61000;48.120;11.548;2022-10-04T01:32:31;6.85;;;4.88;;
72864;SDS011;61000;48.120;11.548;2022-10-04T01:34:58;7.00;;;5.57;;
72864;SDS011;61000;48.120;11.548;2022-10-04T01:37:25;7.38;;;5.43;;
72864;SDS011;61000;48.120;11.548;2022-10-04T01:39:53;8.68;;;6.18;;
72864;SDS011;61000;48.120;11.548;2022-10-04T01:42:22;7.53;;;5.30;;
72864;SDS011;61000;48.120;11.548;2022-10-04T01:44:55;5.20;;;4.47;;
72864;SDS011;61000;48.120;11.548;2022-10-04T01:47:31;5.90;;;4.78;;
72864;SDS011;61000;48.120;11.548;2022-10-04T01:50:04;8.38;;;5.10;;
72864;SDS011;61000;48.120;11.548;2022-10-04T01:52:37;6.10;;;5.43;;
72864;SDS011;61000;48.120;11.548;2022-10-04T01:55:10;7.95;;;5.25;;
72864;SDS011;61000;48.120;11.548;2022-10-04T01:57:40;5.85;;;5.03;;
72864;SDS011;61000;48.120;11.548;2022-10-04T02:00:12;7.28;;;4.93;;
72864;SDS011;61000;48.120;11.548;2022-10-04T02:02:40;6.90;;;5.10;;
72864;SDS011;61000;48.120;11.548;2022-10-04T02:05:11;6.25;;;5.03;;
72864;SDS011;61000;48.120;11.548;2022-10-04T02:07:42;8.85;;;5.13;;
72864;SDS011;61000;48.120;11.548;2022-10-04T02:10:17;8.18;;;5.30;;
72864;SDS011;61000;48.120;11.548;2022-10-04T02:12:46;8.80;;;4.90;;
72864;SDS011;61000;48.120;11.548;2022-10-04T02:15:17;5.50;;;4.78;;
72864;SDS011;61000;48.120;11.548;2022-10-04T02:17:45;6.97;;;4.95;;
72864;SDS011;61000;48.120;11.548;2022-10-04T02:20:14;7.68;;;5.43;;
72864;SDS011;61000;48.120;11.548;2022-10-04T02:22:43;6.88;;;5.50;;
72864;SDS011;61000;48.120;11.548;2022-10-04T02:25:11;6.13;;;5.53;;
72864;SDS011;61000;48.120;11.548;2022-10-04T02:27:42;5.22;;;4.65;;
72864;SDS011;61000;48.120;11.548;2022-10-04T02:30:10;7.75;;;5.70;;
72864;SDS011;61000;48.120;11.548;2022-10-04T02:32:39;5.80;;;5.20;;
72864;SDS011;61000;48.120;11.548;2022-10-04T02:35:25;5.57;;;4.90;;
72864;SDS011;61000;48.120;11.548;2022-10-04T02:37:57;6.85;;;5.13;;
72864;SDS011;61000;48.120;11.548;2022-10-04T02:40:31;5.72;;;5.15;;
72864;SDS011;61000;48.120;11.548;2022-10-04T02:43:08;13.35;;;5.60;;
72864;SDS011;61000;48.120;11.548;2022-10-04T02:45:41;6.28;;;5.68;;
72864;SDS011;61000;48.120;11.548;2022-10-04T02:48:21;7.70;;;5.43;;
72864;SDS011;61000;48.120;11.548;2022-10-04T02:50:55;5.95;;;5.28;;
72864;SDS011;61000;48.120;11.548;2022-10-04T02:53:32;5.85;;;4.93;;
72864;SDS011;61000;48.120;11.548;2022-10-04T02:56:07;8.20;;;4.35;;
72864;SDS011;61000;48.120;11.548;2022-10-04T02:58:38;4.78;;;4.28;;
72864;SDS011;61000;48.120;11.548;2022-10-04T03:01:13;6.22;;;4.65;;
72864;SDS011;61000;48.120;11.548;2022-10-04T03:03:43;6.70;;;4.72;;
72864;SDS011;61000;48.120;11.548;2022-10-04T03:06:13;7.25;;;4.82;;
72864;SDS011;61000;48.120;11.548;2022-10-04T03:08:43;7.50;;;4.78;;
72864;SDS011;61000;48.120;11.548;2022-10-04T03:11:14;5.10;;;4.60;;
72864;SDS011;61000;48.120;11.548;2022-10-04T03:13:45;5.55;;;4.70;;
72864;SDS011;61000;48.120;11.548;2022-10-04T03:16:14;6.22;;;4.65;;
72864;SDS011;61000;48.120;11.548;2022-10-04T03:18:41;5.63;;;4.72;;
72864;SDS011;61000;48.120;11.548;2022-10-04T03:21:12;5.18;;;4.55;;
72864;SDS011;61000;48.120;11.548;2022-10-04T03:23:42;7.45;;;4.82;;
72864;SDS011;61000;48.120;11.548;2022-10-04T03:26:13;6.32;;;4.47;;
72864;SDS011;61000;48.120;11.548;2022-10-04T03:28:52;6.47;;;4.85;;
72864;SDS011;61000;48.120;11.548;2022-10-04T03:31:19;5.20;;;4.70;;
72864;SDS011;61000;48.120;11.548;2022-10-04T03:33:46;8.18;;;5.25;;
72864;SDS011;61000;48.120;11.548;2022-10-04T03:36:15;6.88;;;4.65;;
72864;SDS011;61000;48.120;11.548;2022-10-04T03:38:44;4.82;;;4.35;;
72864;SDS011;61000;48.120;11.548;2022-10-04T03:41:13;9.73;;;4.53;;
72864;SDS011;61000;48.120;11.548;2022-10-04T03:43:41;6.57;;;4.70;;
72864;SDS011;61000;48.120;11.548;2022-10-04T03:46:11;6.70;;;4.55;;
72864;SDS011;61000;48.120;11.548;2022-10-04T03:48:40;6.50;;;4.97;;
72864;SDS011;61000;48.120;11.548;2022-10-04T03:51:11;5.05;;;4.55;;
72864;SDS011;61000;48.120;11.548;2022-10-04T03:53:42;6.22;;;4.60;;
72864;SDS011;61000;48.120;11.548;2022-10-04T03:56:11;6.82;;;4.47;;
72864;SDS011;61000;48.120;11.548;2022-10-04T03:58:42;8.07;;;4.75;;
72864;SDS011;61000;48.120;11.548;2022-10-04T04:04:06;5.20;;;4.50;;
72864;SDS011;61000;48.120;11.548;2022-10-04T04:06:42;6.32;;;4.15;;
72864;SDS011;61000;48.120;11.548;2022-10-04T04:09:25;6.28;;;4.18;;
72864;SDS011;61000;48.120;11.548;2022-10-04T04:12:03;5.03;;;4.53;;
72864;SDS011;61000;48.120;11.548;2022-10-04T04:14:35;7.18;;;4.50;;
72864;SDS011;61000;48.120;11.548;2022-10-04T04:20:06;6.72;;;4.65;;
72864;SDS011;61000;48.120;11.548;2022-10-04T04:22:54;7.63;;;5.13;;
72864;SDS011;61000;48.120;11.548;2022-10-04T04:25:23;7.13;;;4.32;;
72864;SDS011;61000;48.120;11.548;2022-10-04T04:27:55;4.50;;;4.10;;
72864;SDS011;61000;48.120;11.548;2022-10-04T04:30:27;9.45;;;5.65;;
72864;SDS011;61000;48.120;11.548;2022-10-04T04:32:58;5.80;;;4.78;;
72864;SDS011;61000;48.120;11.548;2022-10-04T04:35:32;6.55;;;5.13;;
72864;SDS011;61000;48.120;11.548;2022-10-04T04:38:01;4.72;;;4.22;;
72864;SDS011;61000;48.120;11.548;2022-10-04T04:40:30;4.88;;;4.35;;
72864;SDS011;61000;48.120;11.548;2022-10-04T04:42:58;6.78;;;4.93;;
72864;SDS011;61000;48.120;11.548;2022-10-04T04:45:27;9.55;;;4.80;;
72864;SDS011;61000;48.120;11.548;2022-10-04T04:47:58;6.15;;;4.75;;
72864;SDS011;61000;48.120;11.548;2022-10-04T04:50:29;5.68;;;4.72;;
72864;SDS011;61000;48.120;11.548;2022-10-04T04:52:58;5.47;;;4.50;;
72864;SDS011;61000;48.120;11.548;2022-10-04T04:55:31;5.05;;;4.53;;
72864;SDS011;61000;48.120;11.548;2022-10-04T04:58:01;7.55;;;5.07;;
72864;SDS011;61000;48.120;11.548;2022-10-04T05:00:29;10.27;;;4.63;;
72864;SDS011;61000;48.120;11.548;2022-10-04T05:03:00;8.45;;;5.30;;
72864;SDS011;61000;48.120;11.548;2022-10-04T05:05:30;8.05;;;4.90;;
72864;SDS011;61000;48.120;11.548;2022-10-04T05:08:10;7.50;;;5.25;;
72864;SDS011;61000;48.120;11.548;2022-10-04T05:10:42;7.68;;;4.57;;
72864;SDS011;61000;48.120;11.548;2022-10-04T05:13:12;6.43;;;4.82;;
72864;SDS011;61000;48.120;11.548;2022-10-04T05:15:40;7.03;;;5.28;;
72864;SDS011;61000;48.120;11.548;2022-10-04T05:18:13;7.82;;;4.97;;
72864;SDS011;61000;48.120;11.548;2022-10-04T05:20:51;7.65;;;5.03;;
72864;SDS011;61000;48.120;11.548;2022-10-04T05:23:19;7.25;;;5.32;;
72864;SDS011;61000;48.120;11.548;2022-10-04T05:25:46;6.45;;;5.00;;
72864;SDS011;61000;48.120;11.548;2022-10-04T05:28:14;10.38;;;5.38;;
72864;SDS011;61000;48.120;11.548;2022-10-04T05:30:45;9.27;;;5.68;;
72864;SDS011;61000;48.120;11.548;2022-10-04T05:33:25;9.43;;;5.75;;
72864;SDS011;61000;48.120;11.548;2022-10-04T05:36:16;6.43;;;5.72;;
72864;SDS011;61000;48.120;11.548;2022-10-04T05:39:21;7.47;;;5.72;;
72864;SDS011;61000;48.120;11.548;2022-10-04T05:41:55;6.47;;;5.57;;
72864;SDS011;61000;48.120;11.548;2022-10-04T05:44:26;6.80;;;5.90;;
72864;SDS011;61000;48.120;11.548;2022-10-04T05:46:55;9.10;;;5.20;;
72864;SDS011;61000;48.120;11.548;2022-10-04T05:49:26;9.65;;;5.78;;
72864;SDS011;61000;48.120;11.548;2022-10-04T05:51:56;8.43;;;5.35;;
72864;SDS011;61000;48.120;11.548;2022-10-04T05:54:25;8.25;;;5.60;;
72864;SDS011;61000;48.120;11.548;2022-10-04T05:56:59;6.45;;;5.20;;
72864;SDS011;61000;48.120;11.548;2022-10-04T06:00:07;7.22;;;5.20;;
72864;SDS011;61000;48.120;11.548;2022-10-04T06:02:47;18.45;;;5.53;;
72864;SDS011;61000;48.120;11.548;2022-10-04T06:05:43;9.02;;;6.15;;
72864;SDS011;61000;48.120;11.548;2022-10-04T06:08:16;7.47;;;4.82;;
72864;SDS011;61000;48.120;11.548;2022-10-04T06:10:56;12.65;;;6.38;;
72864;SDS011;61000;48.120;11.548;2022-10-04T06:13:47;9.05;;;5.57;;
72864;SDS011;61000;48.120;11.548;2022-10-04T06:16:41;8.35;;;5.28;;
72864;SDS011;61000;48.120;11.548;2022-10-04T06:19:27;8.98;;;5.40;;
72864;SDS011;61000;48.120;11.548;2022-10-04T06:22:17;11.02;;;4.82;;
72864;SDS011;61000;48.120;11.548;2022-10-04T06:24:46;13.75;;;6.00;;
72864;SDS011;61000;48.120;11.548;2022-10-04T06:27:16;8.90;;;5.00;;
72864;SDS011;61000;48.120;11.548;2022-10-04T06:29:51;8.60;;;5.18;;
72864;SDS011;61000;48.120;11.548;2022-10-04T06:32:28;9.98;;;5.60;;
72864;SDS011;61000;48.120;11.548;2022-10-04T06:38:27;9.45;;;5.55;;
72864;SDS011;61000;48.120;11.548;2022-10-04T06:41:30;7.18;;;4.72;;
72864;SDS011;61000;48.120;11.548;2022-10-04T06:47:56;6.82;;;5.15;;
72864;SDS011;61000;48.120;11.548;2022-10-04T06:50:41;7.25;;;4.75;;
72864;SDS011;61000;48.120;11.548;2022-10-04T06:56:22;6.95;;;5.28;;
72864;SDS011;61000;48.120;11.548;2022-10-04T06:59:18;7.22;;;4.60;;
72864;SDS011;61000;48.120;11.548;2022-10-04T07:01:57;10.25;;;4.90;;
72864;SDS011;61000;48.120;11.548;2022-10-04T07:04:30;10.00;;;5.30;;
72864;SDS011;61000;48.120;11.548;2022-10-04T07:07:08;6.68;;;5.13;;
72864;SDS011;61000;48.120;11.548;2022-10-04T07:09:53;8.20;;;4.82;;
72864;SDS011;61000;48.120;11.548;2022-10-04T07:12:26;10.00;;;5.43;;
72864;SDS011;61000;48.120;11.548;2022-10-04T07:14:54;5.60;;;4.80;;
72864;SDS011;61000;48.120;11.548;2022-10-04T07:17:26;7.15;;;5.15;;
72864;SDS011;61000;48.120;11.548;2022-10-04T07:19:57;10.52;;;5.22;;
72864;SDS011;61000;48.120;11.548;2022-10-04T07:22:27;7.85;;;6.47;;
72864;SDS011;61000;48.120;11.548;2022-10-04T07:25:04;8.07;;;5.40;;
72864;SDS011;61000;48.120;11.548;2022-10-04T07:27:42;7.53;;;5.63;;
72864;SDS011;61000;48.120;11.548;2022-10-04T07:30:34;11.98;;;5.82;;
72864;SDS011;61000;48.120;11.548;2022-10-04T07:33:04;7.43;;;5.10;;
72864;SDS011;61000;48.120;11.548;2022-10-04T07:35:33;8.57;;;5.82;;
72864;SDS011;61000;48.120;11.548;2022-10-04T07:38:06;6.90;;;5.78;;
72864;SDS011;61000;48.120;11.548;2022-10-04T07:40:43;7.50;;;5.35;;
72864;SDS011;61000;48.120;11.548;2022-10-04T07:43:25;9.20;;;5.38;;
72864;SDS011;61000;48.120;11.548;2022-10-04T07:45:59;9.35;;;5.97;;
72864;SDS011;61000;48.120;11.548;2022-10-04T07:48:29;14.52;;;5.88;;
72864;SDS011;61000;48.120;11.548;2022-10-04T07:50:58;9.77;;;5.50;;
72864;SDS011;61000;48.120;11.548;2022-10-04T07:53:36;9.45;;;5.30;;
72864;SDS011;61000;48.120;11.548;2022-10-04T07:56:09;9.57;;;5.40;;
72864;SDS011;61000;48.120;11.548;2022-10-04T07:58:43;7.97;;;5.95;;
72864;SDS011;61000;48.120;11.548;2022-10-04T08:01:21;8.43;;;5.78;;
72864;SDS011;61000;48.120;11.548;2022-10-04T08:03:58;5.78;;;5.15;;
72864;SDS011;61000;48.120;11.548;2022-10-04T08:06:37;8.10;;;5.20;;
72864;SDS011;61000;48.120;11.548;2022-10-04T08:09:12;10.75;;;5.30;;
72864;SDS011;61000;48.120;11.548;2022-10-04T08:11:52;7.13;;;5.20;;
72864;SDS011;61000;48.120;11.548;2022-10-04T08:14:32;7.78;;;5.05;;
72864;SDS011;61000;48.120;11.548;2022-10-04T08:17:18;7.50;;;5.38;;
72864;SDS011;61000;48.120;11.548;2022-10-04T08:19:57;7.72;;;5.30;;
72864;SDS011;61000;48.120;11.548;2022-10-04T08:22:39;5.63;;;4.47;;
72864;SDS011;61000;48.120;11.548;2022-10-04T08:25:17;5.35;;;4.22;;
72864;SDS011;61000;48.120;11.548;2022-10-04T08:27:59;5.15;;;4.40;;
72864;SDS011;61000;48.120;11.548;2022-10-04T08:30:51;5.00;;;4.43;;
72864;SDS011;61000;48.120;11.548;2022-10-04T08:33:35;6.95;;;4.57;;
72864;SDS011;61000;48.120;11.548;2022-10-04T08:36:16;5.68;;;4.60;;
72864;SDS011;61000;48.120;11.548;2022-10-04T08:38:48;7.65;;;4.43;;
72864;SDS011;61000;48.120;11.548;2022-10-04T08:44:40;6.43;;;4.75;;
72864;SDS011;61000;48.120;11.548;2022-10-04T08:51:01;9.88;;;5.30;;
72864;SDS011;61000;48.120;11.548;2022-10-04T08:54:03;9.45;;;4.43;;
72864;SDS011;61000;48.120;11.548;2022-10-04T08:56:50;5.97;;;4.05;;
72864;SDS011;61000;48.120;11.548;2022-10-04T09:05:28;5.47;;;3.78;;
72864;SDS011;61000;48.120;11.548;2022-10-04T09:14:45;4.57;;;3.42;;
72864;SDS011;61000;48.120;11.548;2022-10-04T09:17:28;5.55;;;3.45;;
72864;SDS011;61000;48.120;11.548;2022-10-04T09:20:14;5.28;;;3.17;;
72864;SDS011;61000;48.120;11.548;2022-10-04T09:22:48;9.23;;;3.75;;
72864;SDS011;61000;48.120;11.548;2022-10-04T09:25:25;7.05;;;3.88;;
72864;SDS011;61000;48.120;11.548;2022-10-04T09:28:08;4.70;;;3.53;;
72864;SDS011;61000;48.120;11.548;2022-10-04T09:30:51;4.78;;;3.50;;
72864;SDS011;61000;48.120;11.548;2022-10-04T09:33:41;3.78;;;3.30;;
72864;SDS011;61000;48.120;11.548;2022-10-04T09:39:21;6.18;;;3.58;;
72864;SDS011;61000;48.120;11.548;2022-10-04T09:42:07;6.05;;;3.80;;
72864;SDS011;61000;48.120;11.548;2022-10-04T09:44:59;5.63;;;3.55;;
72864;SDS011;61000;48.120;11.548;2022-10-04T09:47:42;5.95;;;3.40;;
72864;SDS011;61000;48.120;11.548;2022-10-04T09:50:20;4.85;;;3.00;;
72864;SDS011;61000;48.120;11.548;2022-10-04T09:53:09;5.47;;;3.03;;
72864;SDS011;61000;48.120;11.548;2022-10-04T09:56:07;3.78;;;2.63;;
72864;SDS011;61000;48.120;11.548;2022-10-04T09:58:54;3.97;;;2.63;;
72864;SDS011;61000;48.120;11.548;2022-10-04T10:01:34;3.50;;;3.20;;
72864;SDS011;61000;48.120;11.548;2022-10-04T10:04:22;3.95;;;3.20;;
72864;SDS011;61000;48.120;11.548;2022-10-04T10:07:16;4.40;;;2.70;;
72864;SDS011;61000;48.120;11.548;2022-10-04T10:09:58;3.47;;;3.00;;
72864;SDS011;61000;48.120;11.548;2022-10-04T10:12:55;4.05;;;2.60;;
72864;SDS011;61000;48.120;11.548;2022-10-04T10:15:55;3.78;;;2.83;;
72864;SDS011;61000;48.120;11.548;2022-10-04T10:18:32;3.58;;;2.95;;
72864;SDS011;61000;48.120;11.548;2022-10-04T10:21:11;4.55;;;3.10;;
72864;SDS011;61000;48.120;11.548;2022-10-04T10:24:03;4.63;;;3.00;;
72864;SDS011;61000;48.120;11.548;2022-10-04T10:26:53;4.95;;;2.90;;
72864;SDS011;61000;48.120;11.548;2022-10-04T10:35:44;8.02;;;3.53;;
72864;SDS011;61000;48.120;11.548;2022-10-04T10:38:25;3.03;;;2.72;;
72864;SDS011;61000;48.120;11.548;2022-10-04T10:41:20;4.70;;;3.10;;
72864;SDS011;61000;48.120;11.548;2022-10-04T10:43:59;6.00;;;3.25;;
72864;SDS011;61000;48.120;11.548;2022-10-04T10:46:41;6.53;;;2.88;;
72864;SDS011;61000;48.120;11.548;2022-10-04T10:49:27;4.20;;;3.05;;
72864;SDS011;61000;48.120;11.548;2022-10-04T10:52:27;3.10;;;2.85;;
72864;SDS011;61000;48.120;11.548;2022-10-04T10:55:47;6.18;;;3.05;;
72864;SDS011;61000;48.120;11.548;2022-10-04T11:01:42;4.00;;;3.40;;
72864;SDS011;61000;48.120;11.548;2022-10-04T11:04:37;5.30;;;3.20;;
72864;SDS011;61000;48.120;11.548;2022-10-04T11:07:23;7.43;;;3.05;;
72864;SDS011;61000;48.120;11.548;2022-10-04T11:10:16;5.50;;;3.53;;
72864;SDS011;61000;48.120;11.548;2022-10-04T11:13:37;6.30;;;3.22;;
72864;SDS011;61000;48.120;11.548;2022-10-04T11:22:50;5.07;;;3.47;;
72864;SDS011;61000;48.120;11.548;2022-10-04T11:28:44;5.47;;;3.22;;
72864;SDS011;61000;48.120;11.548;2022-10-04T11:31:31;5.30;;;3.28;;
72864;SDS011;61000;48.120;11.548;2022-10-04T11:34:17;4.07;;;3.50;;
72864;SDS011;61000;48.120;11.548;2022-10-04T11:37:04;3.28;;;2.60;;
72864;SDS011;61000;48.120;11.548;2022-10-04T11:39:47;4.78;;;3.50;;
72864;SDS011;61000;48.120;11.548;2022-10-04T11:42:25;3.60;;;3.08;;
72864;SDS011;61000;48.120;11.548;2022-10-04T11:45:12;3.88;;;3.05;;
72864;SDS011;61000;48.120;11.548;2022-10-04T11:47:54;3.42;;;3.10;;
72864;SDS011;61000;48.120;11.548;2022-10-04T11:50:35;2.88;;;2.67;;
72864;SDS011;61000;48.120;11.548;2022-10-04T11:53:20;4.55;;;2.83;;
72864;SDS011;61000;48.120;11.548;2022-10-04T11:56:17;4.63;;;2.80;;
72864;SDS011;61000;48.120;11.548;2022-10-04T11:58:55;3.97;;;2.85;;
72864;SDS011;61000;48.120;11.548;2022-10-04T12:01:44;3.47;;;2.50;;
72864;SDS011;61000;48.120;11.548;2022-10-04T12:04:30;3.92;;;2.47;;
72864;SDS011;61000;48.120;11.548;2022-10-04T12:07:26;3.35;;;2.45;;
72864;SDS011;61000;48.120;11.548;2022-10-04T12:12:59;3.00;;;2.08;;
72864;SDS011;61000;48.120;11.548;2022-10-04T12:18:58;4.18;;;3.13;;
72864;SDS011;61000;48.120;11.548;2022-10-04T12:24:49;5.47;;;2.90;;
72864;SDS011;61000;48.120;11.548;2022-10-04T12:27:45;3.80;;;2.70;;
72864;SDS011;61000;48.120;11.548;2022-10-04T12:30:42;5.20;;;3.50;;
72864;SDS011;61000;48.120;11.548;2022-10-04T12:33:30;4.07;;;2.63;;
72864;SDS011;61000;48.120;11.548;2022-10-04T12:36:06;5.40;;;2.85;;
72864;SDS011;61000;48.120;11.548;2022-10-04T12:38:52;4.28;;;2.75;;
72864;SDS011;61000;48.120;11.548;2022-10-04T12:41:35;6.18;;;2.78;;
72864;SDS011;61000;48.120;11.548;2022-10-04T12:44:17;3.70;;;2.42;;
72864;SDS011;61000;48.120;11.548;2022-10-04T12:46:55;4.00;;;2.90;;
72864;SDS011;61000;48.120;11.548;2022-10-04T12:49:51;3.80;;;2.80;;
72864;SDS011;61000;48.120;11.548;2022-10-04T12:52:25;6.03;;;2.70;;
72864;SDS011;61000;48.120;11.548;2022-10-04T12:55:08;7.20;;;2.75;;
72864;SDS011;61000;48.120;11.548;2022-10-04T12:57:48;3.40;;;2.00;;
72864;SDS011;61000;48.120;11.548;2022-10-04T13:00:22;4.57;;;2.78;;
72864;SDS011;61000;48.120;11.548;2022-10-04T13:02:52;4.30;;;2.65;;
72864;SDS011;61000;48.120;11.548;2022-10-04T13:05:32;3.47;;;2.70;;
72864;SDS011;61000;48.120;11.548;2022-10-04T13:11:08;2.50;;;2.30;;
72864;SDS011;61000;48.120;11.548;2022-10-04T13:13:58;3.58;;;2.72;;
72864;SDS011;61000;48.120;11.548;2022-10-04T13:16:48;3.10;;;2.55;;
72864;SDS011;61000;48.120;11.548;2022-10-04T13:19:22;4.55;;;2.88;;
72864;SDS011;61000;48.120;11.548;2022-10-04T13:22:04;6.35;;;2.58;;
72864;SDS011;61000;48.120;11.548;2022-10-04T13:24:47;5.18;;;3.10;;
72864;SDS011;61000;48.120;11.548;2022-10-04T13:30:15;3.55;;;2.90;;
72864;SDS011;61000;48.120;11.548;2022-10-04T13:32:49;6.35;;;2.65;;
72864;SDS011;61000;48.120;11.548;2022-10-04T13:35:24;4.25;;;2.78;;
72864;SDS011;61000;48.120;11.548;2022-10-04T13:38:01;4.47;;;2.50;;
72864;SDS011;61000;48.120;11.548;2022-10-04T13:40:51;4.03;;;2.78;;
72864;SDS011;61000;48.120;11.548;2022-10-04T13:43:33;4.38;;;2.47;;
72864;SDS011;61000;48.120;11.548;2022-10-04T13:46:17;6.80;;;2.85;;
72864;SDS011;61000;48.120;11.548;2022-10-04T13:48:59;3.13;;;2.33;;
72864;SDS011;61000;48.120;11.548;2022-10-04T13:51:41;3.25;;;2.40;;
72864;SDS011;61000;48.120;11.548;2022-10-04T13:54:50;4.95;;;2.42;;
72864;SDS011;61000;48.120;11.548;2022-10-04T13:57:45;3.63;;;2.40;;
72864;SDS011;61000;48.120;11.548;2022-10-04T14:00:19;4.60;;;2.40;;
72864;SDS011;61000;48.120;11.548;2022-10-04T14:06:17;4.72;;;2.65;;
72864;SDS011;61000;48.120;11.548;2022-10-04T14:09:02;5.10;;;3.40;;
72864;SDS011;61000;48.120;11.548;2022-10-04T14:11:51;3.13;;;2.50;;
72864;SDS011;61000;48.120;11.548;2022-10-04T14:14:42;4.93;;;2.40;;
72864;SDS011;61000;48.120;11.548;2022-10-04T14:20:55;2.33;;;2.10;;
72864;SDS011;61000;48.120;11.548;2022-10-04T14:24:05;4.38;;;2.67;;
72864;SDS011;61000;48.120;11.548;2022-10-04T14:30:11;4.70;;;3.30;;
72864;SDS011;61000;48.120;11.548;2022-10-04T14:35:56;3.47;;;2.50;;
72864;SDS011;61000;48.120;11.548;2022-10-04T14:38:45;4.75;;;2.55;;
72864;SDS011;61000;48.120;11.548;2022-10-04T14:47:17;5.15;;;2.70;;
72864;SDS011;61000;48.120;11.548;2022-10-04T14:50:14;4.38;;;2.60;;
72864;SDS011;61000;48.120;11.548;2022-10-04T14:52:50;5.63;;;2.60;;
72864;SDS011;61000;48.120;11.548;2022-10-04T14:55:35;2.85;;;2.10;;
72864;SDS011;61000;48.120;11.548;2022-10-04T14:58:19;4.43;;;2.60;;
72864;SDS011;61000;48.120;11.548;2022-10-04T15:03:47;2.22;;;2.08;;
72864;SDS011;61000;48.120;11.548;2022-10-04T15:06:34;2.90;;;2.60;;
72864;SDS011;61000;48.120;11.548;2022-10-04T15:09:24;3.95;;;2.30;;
72864;SDS011;61000;48.120;11.548;2022-10-04T15:15:22;3.00;;;2.70;;
72864;SDS011;61000;48.120;11.548;2022-10-04T15:18:20;2.78;;;2.55;;
72864;SDS011;61000;48.120;11.548;2022-10-04T15:20:57;4.63;;;2.88;;
72864;SDS011;61000;48.120;11.548;2022-10-04T15:23:28;3.92;;;2.42;;
72864;SDS011;61000;48.120;11.548;2022-10-04T15:26:02;3.22;;;2.28;;
72864;SDS011;61000;48.120;11.548;2022-10-04T15:28:49;3.10;;;2.25;;
72864;SDS011;61000;48.120;11.548;2022-10-04T15:31:29;6.63;;;2.78;;
72864;SDS011;61000;48.120;11.548;2022-10-04T15:34:03;3.42;;;2.63;;
72864;SDS011;61000;48.120;11.548;2022-10-04T15:36:41;2.92;;;2.40;;
72864;SDS011;61000;48.120;11.548;2022-10-04T15:39:43;2.53;;;2.33;;
72864;SDS011;61000;48.120;11.548;2022-10-04T15:42:53;5.15;;;2.42;;
72864;SDS011;61000;48.120;11.548;2022-10-04T15:48:58;3.40;;;2.47;;
72864;SDS011;61000;48.120;11.548;2022-10-04T15:52:00;3.20;;;2.45;;
72864;SDS011;61000;48.120;11.548;2022-10-04T15:57:36;3.65;;;2.58;;
72864;SDS011;61000;48.120;11.548;2022-10-04T16:00:21;3.20;;;2.50;;
72864;SDS011;61000;48.120;11.548;2022-10-04T16:02:57;4.60;;;2.47;;
72864;SDS011;61000;48.120;11.548;2022-10-04T16:05:34;2.75;;;2.40;;
72864;SDS011;61000;48.120;11.548;2022-10-04T16:08:18;6.85;;;2.83;;
72864;SDS011;61000;48.120;11.548;2022-10-04T16:11:02;7.80;;;3.00;;
72864;SDS011;61000;48.120;11.548;2022-10-04T16:14:03;3.72;;;2.78;;
72864;SDS011;61000;48.120;11.548;2022-10-04T16:17:10;3.38;;;2.90;;
72864;SDS011;61000;48.120;11.548;2022-10-04T16:20:11;4.40;;;2.83;;
72864;SDS011;61000;48.120;11.548;2022-10-04T16:25:49;4.35;;;2.85;;
72864;SDS011;61000;48.120;11.548;2022-10-04T16:28:20;4.70;;;3.13;;
72864;SDS011;61000;48.120;11.548;2022-10-04T16:31:11;4.05;;;3.10;;
72864;SDS011;61000;48.120;11.548;2022-10-04T16:33:57;3.13;;;2.83;;
72864;SDS011;61000;48.120;11.548;2022-10-04T16:36:29;4.45;;;2.70;;
72864;SDS011;61000;48.120;11.548;2022-10-04T16:39:12;5.22;;;3.13;;
72864;SDS011;61000;48.120;11.548;2022-10-04T16:42:15;5.53;;;3.20;;
72864;SDS011;61000;48.120;11.548;2022-10-04T16:44:48;7.95;;;3.55;;
72864;SDS011;61000;48.120;11.548;2022-10-04T16:47:20;3.45;;;2.83;;
72864;SDS011;61000;48.120;11.548;2022-10-04T16:49:53;5.70;;;3.60;;
72864;SDS011;61000;48.120;11.548;2022-10-04T16:52:34;4.35;;;2.95;;
72864;SDS011;61000;48.120;11.548;2022-10-04T16:55:27;3.25;;;2.88;;
72864;SDS011;61000;48.120;11.548;2022-10-04T17:07:29;4.50;;;3.38;;
72864;SDS011;61000;48.120;11.548;2022-10-04T17:10:16;7.70;;;3.50;;
72864;SDS011;61000;48.120;11.548;2022-10-04T17:12:55;7.03;;;3.95;;
72864;SDS011;61000;48.120;11.548;2022-10-04T17:15:43;5.28;;;3.60;;
72864;SDS011;61000;48.120;11.548;2022-10-04T17:18:25;10.77;;;6.10;;
72864;SDS011;61000;48.120;11.548;2022-10-04T17:20:57;6.10;;;4.25;;
72864;SDS011;61000;48.120;11.548;2022-10-04T17:23:37;9.82;;;3.90;;
72864;SDS011;61000;48.120;11.548;2022-10-04T17:26:18;9.38;;;4.70;;
72864;SDS011;61000;48.120;11.548;2022-10-04T17:28:55;6.82;;;4.38;;
72864;SDS011;61000;48.120;11.548;2022-10-04T17:31:25;8.20;;;4.57;;
72864;SDS011;61000;48.120;11.548;2022-10-04T17:33:58;5.75;;;4.80;;
72864;SDS011;61000;48.120;11.548;2022-10-04T17:36:34;8.65;;;4.47;;
72864;SDS011;61000;48.120;11.548;2022-10-04T17:39:13;4.60;;;4.10;;
72864;SDS011;61000;48.120;11.548;2022-10-04T17:41:52;12.00;;;4.70;;
72864;SDS011;61000;48.120;11.548;2022-10-04T17:44:31;6.35;;;4.50;;
72864;SDS011;61000;48.120;11.548;2022-10-04T17:47:33;8.45;;;5.35;;
72864;SDS011;61000;48.120;11.548;2022-10-04T17:50:22;10.10;;;5.40;;